createdAt,value
2023-05-20T00:04:19.640Z,5.57
2023-05-20T00:09:22.797Z,6.88
2023-05-20T00:14:25.755Z,5.60
2023-05-20T00:19:28.574Z,8.02
2023-05-20T00:24:31.328Z,7.18
2023-05-20T00:29:34.566Z,7.47
2023-05-20T00:34:40.682Z,6.47
2023-05-20T00:39:46.577Z,7.80
2023-05-20T00:44:49.571Z,8.95
2023-05-20T00:49:53.983Z,7.40
2023-05-20T00:54:57.088Z,9.77
2023-05-20T01:00:00.136Z,7.25
2023-05-20T01:05:05.784Z,6.88
2023-05-20T01:10:09.886Z,7.30
2023-05-20T01:15:15.659Z,6.60
2023-05-20T01:20:19.267Z,7.22
2023-05-20T01:25:28.059Z,7.93
2023-05-20T01:30:36.343Z,7.05
2023-05-20T01:35:43.352Z,7.38
2023-05-20T01:40:47.175Z,7.13
2023-05-20T01:45:49.947Z,8.68
2023-05-20T01:50:52.708Z,7.43
2023-05-20T01:55:55.431Z,7.30
2023-05-20T02:00:58.617Z,7.43
2023-05-20T02:06:04.116Z,8.03
2023-05-20T02:11:07.168Z,9.00
2023-05-20T02:16:18.871Z,7.95
2023-05-20T02:21:23.378Z,7.53
2023-05-20T02:26:26.740Z,7.45
2023-05-20T02:31:31.791Z,7.00
2023-05-20T02:36:34.742Z,9.15
2023-05-20T02:46:41.715Z,7.10
2023-05-20T02:51:45.482Z,9.07
2023-05-20T02:56:48.434Z,9.27
2023-05-20T03:01:51.502Z,8.20
2023-05-20T03:06:54.656Z,7.20
2023-05-20T03:11:58.969Z,7.43
2023-05-20T03:17:01.780Z,9.52
2023-05-20T03:22:04.695Z,9.27
2023-05-20T03:27:08.264Z,10.60
2023-05-20T03:37:14.502Z,8.07
2023-05-20T03:42:18.689Z,9.35
2023-05-20T03:47:21.827Z,9.63
2023-05-20T03:57:29.802Z,9.43
2023-05-20T04:02:32.627Z,9.05
2023-05-20T04:07:37.086Z,10.93
2023-05-20T04:12:41.779Z,9.77
2023-05-20T04:17:48.813Z,10.50
2023-05-20T04:22:52.590Z,10.48
2023-05-20T04:27:58.374Z,10.45
2023-05-20T04:33:03.724Z,11.38
2023-05-20T04:38:08.943Z,10.93
2023-05-20T04:43:13.273Z,10.35
2023-05-20T04:48:16.670Z,9.75
2023-05-20T04:53:19.644Z,8.88
2023-05-20T04:58:24.529Z,8.30
2023-05-20T05:03:27.318Z,10.30
2023-05-20T05:08:30.327Z,8.27
2023-05-20T05:13:35.085Z,7.45
2023-05-20T05:18:38.020Z,8.68
2023-05-20T05:23:42.867Z,8.38
2023-05-20T05:28:47.149Z,8.23
2023-05-20T05:33:50.062Z,7.82
2023-05-20T05:38:53.408Z,7.32
2023-05-20T05:44:02.250Z,8.35
2023-05-20T05:49:05.613Z,9.13
2023-05-20T05:54:12.668Z,7.75
2023-05-20T05:59:16.534Z,9.20
2023-05-20T06:04:22.270Z,7.85
2023-05-20T06:09:28.146Z,8.30
2023-05-20T06:14:32.898Z,8.07
2023-05-20T06:19:35.900Z,7.18
2023-05-20T06:24:38.708Z,7.47
2023-05-20T06:29:44.038Z,7.20
2023-05-20T06:34:47.271Z,7.03
2023-05-20T06:39:56.014Z,7.28
2023-05-20T06:44:59.072Z,7.22
2023-05-20T06:50:16.834Z,8.70
2023-05-20T06:55:22.237Z,8.27
2023-05-20T07:00:25.876Z,7.75
2023-05-20T07:05:33.337Z,9.25
2023-05-20T07:10:43.626Z,8.40
2023-05-20T07:15:52.280Z,8.52
2023-05-20T07:20:57.180Z,7.82
2023-05-20T07:26:22.401Z,8.23
2023-05-20T07:31:25.280Z,9.20
2023-05-20T07:36:30.305Z,10.23
2023-05-20T07:41:41.778Z,10.73
2023-05-20T07:51:48.511Z,8.20
2023-05-20T07:57:02.858Z,10.52
2023-05-20T08:02:07.422Z,9.33
2023-05-20T08:07:11.245Z,13.68
2023-05-20T08:12:24.798Z,13.45
2023-05-20T08:17:28.828Z,10.93
2023-05-20T08:22:32.700Z,10.55
2023-05-20T08:32:41.625Z,12.68
2023-05-20T08:37:45.027Z,13.98
2023-05-20T08:42:50.334Z,13.02
2023-05-20T08:47:54.410Z,14.05
2023-05-20T08:52:57.776Z,12.98
2023-05-20T08:58:04.231Z,12.05
2023-05-20T09:03:06.971Z,14.15
2023-05-20T09:08:11.576Z,13.02
2023-05-20T09:13:17.659Z,14.98
2023-05-20T09:18:22.797Z,15.50
2023-05-20T09:23:26.270Z,14.97
2023-05-20T09:28:29.241Z,14.30
2023-05-20T09:33:35.219Z,13.23
2023-05-20T09:38:40.061Z,10.50
2023-05-20T09:43:44.640Z,13.52
2023-05-20T09:48:48.722Z,14.50
2023-05-20T09:53:52.220Z,10.85
2023-05-20T09:58:58.604Z,12.70
2023-05-20T10:04:02.683Z,12.65
2023-05-20T10:14:42.783Z,14.02
2023-05-20T10:19:45.739Z,14.15
2023-05-20T10:25:21.023Z,15.15
2023-05-20T10:30:23.736Z,15.50
2023-05-20T10:35:27.956Z,16.80
2023-05-20T10:40:32.463Z,15.10
2023-05-20T10:45:39.533Z,17.02
2023-05-20T10:50:43.136Z,16.52
2023-05-20T10:55:54.932Z,19.00
2023-05-20T11:01:03.675Z,20.67
2023-05-20T11:06:20.652Z,15.55
2023-05-20T11:11:27.616Z,16.05
2023-05-20T11:16:39.562Z,15.02
2023-05-20T11:21:46.714Z,15.77
2023-05-20T11:26:49.821Z,16.38
2023-05-20T11:31:52.805Z,13.38
2023-05-20T11:42:02.155Z,12.63
2023-05-20T11:47:07.016Z,12.07
2023-05-20T11:52:14.276Z,11.43
2023-05-20T11:57:16.771Z,12.05
2023-05-20T12:02:19.558Z,12.80
2023-05-20T12:07:23.921Z,12.63
2023-05-20T12:12:26.805Z,14.13
2023-05-20T12:17:29.495Z,12.55
2023-05-20T12:22:32.299Z,12.48
2023-05-20T12:27:36.178Z,11.93
2023-05-20T12:32:39.167Z,10.63
2023-05-20T12:37:42.857Z,14.30
2023-05-20T12:42:46.154Z,10.73
2023-05-20T12:47:49.991Z,10.32
2023-05-20T12:52:53.384Z,13.90
2023-05-20T12:57:57.465Z,10.68
2023-05-20T13:03:02.189Z,13.25
2023-05-20T13:08:05.441Z,10.88
2023-05-20T13:18:18.052Z,11.25
2023-05-20T13:23:21.175Z,10.73
2023-05-20T13:28:23.946Z,12.18
2023-05-20T13:38:35.109Z,10.57
2023-05-20T13:43:38.057Z,12.65
2023-05-20T13:48:40.740Z,11.45
2023-05-20T13:53:43.461Z,10.82
2023-05-20T13:58:49.429Z,11.45
2023-05-20T14:03:52.907Z,11.07
2023-05-20T14:08:56.931Z,11.18
2023-05-20T14:13:59.640Z,10.68
2023-05-20T14:19:02.788Z,10.90
2023-05-20T14:24:05.879Z,10.32
2023-05-20T14:29:08.671Z,11.82
2023-05-20T14:34:14.437Z,11.23
2023-05-20T14:39:21.057Z,8.98
2023-05-20T14:44:23.665Z,8.75
2023-05-20T14:49:28.349Z,9.63
2023-05-20T14:54:31.131Z,10.40
2023-05-20T14:59:34.643Z,10.95
2023-05-20T15:04:40.394Z,10.15
2023-05-20T15:09:46.641Z,9.40
2023-05-20T15:14:49.468Z,10.23
2023-05-20T15:24:55.071Z,10.18
2023-05-20T15:35:10.087Z,9.57
2023-05-20T15:40:13.047Z,10.80
2023-05-20T15:45:16.613Z,23.58
2023-05-20T15:50:19.460Z,10.15
2023-05-20T15:55:23.683Z,8.50
2023-05-20T16:00:26.489Z,9.95
2023-05-20T16:05:29.588Z,10.32
2023-05-20T16:10:34.954Z,9.00
2023-05-20T16:15:38.879Z,8.35
2023-05-20T16:20:44.505Z,18.70
2023-05-20T16:25:47.433Z,9.40
2023-05-20T16:30:53.389Z,11.10
2023-05-20T16:36:03.160Z,10.43
2023-05-20T16:41:06.250Z,11.48
2023-05-20T16:51:12.084Z,10.65
2023-05-20T16:56:14.990Z,12.68
2023-05-20T17:01:19.366Z,12.43
2023-05-20T17:06:24.161Z,13.27
2023-05-20T17:11:28.646Z,13.85
2023-05-20T17:16:34.085Z,14.68
2023-05-20T17:21:38.387Z,16.38
2023-05-20T17:26:41.381Z,18.13
2023-05-20T17:31:44.899Z,15.38
2023-05-20T17:36:53.238Z,16.20
2023-05-20T17:41:56.660Z,16.35
2023-05-20T17:46:59.642Z,16.75
2023-05-20T17:57:07.549Z,13.77
2023-05-20T18:02:10.565Z,14.48
2023-05-20T18:12:17.559Z,17.02
2023-05-20T18:17:20.151Z,16.15
2023-05-20T18:22:26.607Z,15.38
2023-05-20T18:27:29.932Z,14.35
2023-05-20T18:32:33.271Z,15.20
2023-05-20T18:37:36.474Z,14.82
2023-05-20T18:42:39.434Z,17.60
2023-05-20T18:47:44.770Z,17.58
2023-05-20T18:52:47.464Z,18.60
2023-05-20T18:57:50.450Z,15.05
2023-05-20T19:02:58.323Z,17.60
2023-05-20T19:08:03.266Z,27.35
2023-05-20T19:13:06.867Z,38.00
2023-05-20T19:18:09.647Z,41.13
2023-05-20T19:23:12.383Z,37.35
2023-05-20T19:28:15.288Z,29.40
2023-05-20T19:33:18.491Z,25.05
2023-05-20T19:38:24.160Z,25.65
2023-05-20T19:43:27.093Z,29.27
2023-05-20T19:48:30.893Z,34.80
2023-05-20T19:53:33.812Z,36.00
2023-05-20T19:58:36.882Z,31.95
2023-05-20T20:03:41.024Z,31.55
2023-05-20T20:08:46.051Z,31.33
2023-05-20T20:13:48.692Z,34.35
2023-05-20T20:18:53.488Z,33.45
2023-05-20T20:23:56.860Z,32.00
2023-05-20T20:28:59.666Z,37.95
2023-05-20T20:34:02.965Z,43.55
2023-05-20T20:39:06.116Z,39.55
2023-05-20T20:44:10.873Z,35.70
2023-05-20T20:49:13.781Z,32.05
2023-05-20T20:54:17.142Z,33.55
2023-05-20T21:04:28.075Z,32.92
2023-05-20T21:09:34.026Z,29.33
2023-05-20T21:14:37.450Z,31.60
2023-05-20T21:19:40.515Z,31.30
2023-05-20T21:24:44.435Z,30.23
2023-05-20T21:29:48.991Z,32.63
2023-05-20T21:34:52.068Z,28.85
2023-05-20T21:39:57.628Z,21.98
2023-05-20T21:45:00.861Z,19.00
2023-05-20T21:55:10.551Z,19.75
2023-05-20T22:00:16.813Z,19.20
2023-05-20T22:05:20.982Z,17.95
2023-05-20T22:10:24.344Z,18.50
2023-05-20T22:20:30.819Z,21.17
2023-05-20T22:25:34.026Z,20.80
2023-05-20T22:30:38.944Z,21.30
2023-05-20T22:35:41.717Z,20.42
2023-05-20T22:40:44.585Z,23.20
2023-05-20T22:45:47.346Z,23.15
2023-05-20T22:50:51.297Z,27.00
2023-05-20T22:55:56.979Z,23.25
2023-05-20T23:01:00.670Z,23.92
2023-05-20T23:06:04.498Z,21.40
2023-05-20T23:16:10.869Z,23.30
2023-05-20T23:21:14.787Z,20.73
2023-05-20T23:26:17.468Z,19.60
2023-05-20T23:31:20.651Z,20.55
2023-05-20T23:41:26.940Z,21.13
2023-05-20T23:46:30.783Z,21.52
2023-05-20T23:51:37.278Z,18.05
2023-05-20T23:56:40.025Z,21.80
